Time;durP1;ratioP1;P1;durP2;ratioP2;P2;SDS_P1;SDS_P2;PMS_P1;PMS_P2;Temp;Humidity;BMP_temperature;BMP_pressure;BME280_temperature;BME280_humidity;BME280_pressure;Samples;Min_cycle;Max_cycle;Signal;HPM_P1;HPM_P2
2022/09/22 00:01:32;;;;;;;26.17;14.33;;;;;;;5.44;100.00;102381.91;4909501;29;20020;-78
2022/09/22 00:04:03;;;;;;;19.55;13.55;;;;;;;5.41;100.00;102376.97;4906342;29;20032;-78
2022/09/22 00:06:36;;;;;;;17.50;13.32;;;;;;;5.43;100.00;102382.94;4889421;29;20082;-78
2022/09/22 00:09:02;;;;;;;17.67;13.00;;;;;;;5.40;100.00;102375.31;4914628;29;20036;-78
2022/09/22 00:11:34;;;;;;;18.50;13.77;;;;;;;5.39;100.00;102377.13;4916133;29;20484;-78
2022/09/22 00:14:06;;;;;;;18.67;13.10;;;;;;;5.30;100.00;102367.63;4907141;29;20054;-78
2022/09/22 00:16:38;;;;;;;16.10;12.43;;;;;;;5.30;100.00;102372.94;4915719;29;20034;-78
2022/09/22 00:19:09;;;;;;;16.67;13.07;;;;;;;5.31;100.00;102372.75;4915960;29;20296;-79
2022/09/22 00:21:35;;;;;;;15.68;12.63;;;;;;;5.31;100.00;102377.25;4905666;29;20040;-78
2022/09/22 00:24:01;;;;;;;19.10;13.27;;;;;;;5.30;100.00;102373.75;4912671;29;20032;-78
2022/09/22 00:26:30;;;;;;;19.48;13.40;;;;;;;5.32;100.00;102376.25;4908590;29;20039;-79
2022/09/22 00:28:55;;;;;;;17.70;13.23;;;;;;;5.31;100.00;102372.75;4883595;29;20076;-78
2022/09/22 00:31:22;;;;;;;21.53;13.30;;;;;;;5.30;100.00;102376.41;4914235;29;20040;-78
2022/09/22 00:33:49;;;;;;;16.67;12.85;;;;;;;5.27;100.00;102376.81;4908669;29;20036;-79
2022/09/22 00:36:16;;;;;;;15.77;12.65;;;;;;;5.23;100.00;102367.53;4910329;29;20028;-78
2022/09/22 00:38:42;;;;;;;17.77;13.27;;;;;;;5.22;100.00;102370.34;4874135;29;20477;-78
2022/09/22 00:41:15;;;;;;;18.40;13.32;;;;;;;5.19;100.00;102371.56;4907764;29;20036;-79
2022/09/22 00:43:45;;;;;;;18.03;12.70;;;;;;;5.21;100.00;102371.38;4906596;29;20024;-79
2022/09/22 00:46:21;;;;;;;17.87;12.57;;;;;;;5.19;100.00;102368.09;4904731;29;20399;-79
2022/09/22 00:48:54;;;;;;;18.48;13.05;;;;;;;5.17;100.00;102368.25;4905704;29;20036;-78
2022/09/22 00:51:22;;;;;;;22.02;12.60;;;;;;;5.15;100.00;102370.28;4913642;29;20388;-79
2022/09/22 00:53:48;;;;;;;16.38;12.65;;;;;;;5.10;100.00;102370.84;4912682;29;20056;-78
2022/09/22 00:56:19;;;;;;;17.05;12.50;;;;;;;5.07;100.00;102357.09;4913606;29;20523;-79
2022/09/22 00:58:49;;;;;;;19.13;12.60;;;;;;;5.03;100.00;102361.13;4912386;29;20024;-79
2022/09/22 01:01:14;;;;;;;14.45;12.00;;;;;;;4.96;100.00;102351.22;4914296;29;20051;-79
2022/09/22 01:03:41;;;;;;;15.80;12.20;;;;;;;4.98;100.00;102356.34;4897662;29;20092;-79
2022/09/22 01:06:11;;;;;;;16.52;12.15;;;;;;;4.97;100.00;102357.38;4897280;29;20056;-78
2022/09/22 01:08:38;;;;;;;17.33;12.02;;;;;;;4.90;100.00;102349.31;4897356;29;20119;-79
2022/09/22 01:11:05;;;;;;;15.90;11.82;;;;;;;4.90;100.00;102343.16;4914856;29;20471;-79
2022/09/22 01:13:39;;;;;;;15.27;11.48;;;;;;;4.89;100.00;102347.66;4912581;29;20028;-78
2022/09/22 01:16:18;;;;;;;17.15;11.75;;;;;;;4.87;100.00;102341.69;4910397;29;20111;-79
2022/09/22 01:18:47;;;;;;;15.50;11.93;;;;;;;4.83;100.00;102343.06;4905706;29;20156;-78
2022/09/22 01:21:19;;;;;;;17.05;12.68;;;;;;;4.81;100.00;102339.75;4914476;29;20464;-78
2022/09/22 01:24:06;;;;;;;18.83;13.35;;;;;;;4.81;100.00;102339.75;4913936;29;20031;-78
2022/09/22 01:26:51;;;;;;;23.83;13.23;;;;;;;4.78;100.00;102338.28;4900401;29;20046;-79
2022/09/22 01:29:35;;;;;;;15.43;11.93;;;;;;;4.76;100.00;102329.69;4914538;29;20322;-79
2022/09/22 01:32:19;;;;;;;17.67;13.13;;;;;;;4.76;100.00;102335.00;4897463;29;20508;-79
2022/09/22 01:34:53;;;;;;;19.45;12.90;;;;;;;4.75;100.00;102329.88;4900001;29;20136;-79
2022/09/22 01:37:38;;;;;;;16.50;12.60;;;;;;;4.63;100.00;102325.00;4913727;29;20414;-78
2022/09/22 01:40:11;;;;;;;15.25;12.38;;;;;;;4.61;100.00;102327.00;4913192;29;20476;-78
2022/09/22 01:42:43;;;;;;;17.05;12.82;;;;;;;4.60;100.00;102330.66;4896233;29;20040;-78
2022/09/22 01:45:19;;;;;;;14.77;11.95;;;;;;;4.61;100.00;102331.50;4903978;29;20037;-78
2022/09/22 01:47:52;;;;;;;16.92;12.38;;;;;;;4.63;100.00;102324.19;4897417;29;20167;-78
2022/09/22 01:50:23;;;;;;;18.08;12.48;;;;;;;4.54;100.00;102315.47;4907620;29;20663;-78
2022/09/22 01:52:51;;;;;;;19.10;12.30;;;;;;;4.53;100.00;102313.81;4913072;29;20040;-79
2022/09/22 01:55:28;;;;;;;16.93;13.00;;;;;;;4.53;100.00;102311.97;4896335;29;20304;-78
2022/09/22 01:58:11;;;;;;;17.27;12.63;;;;;;;4.55;100.00;102319.78;4907284;29;20029;-78
2022/09/22 02:00:39;;;;;;;16.70;12.73;;;;;;;4.49;100.00;102309.88;4896664;29;20031;-80
2022/09/22 02:03:14;;;;;;;17.73;12.50;;;;;;;4.43;100.00;102300.81;4903755;29;20035;-78
2022/09/22 02:05:46;;;;;;;17.63;12.73;;;;;;;4.46;100.00;102307.56;4909482;29;20032;-78
2022/09/22 02:08:20;;;;;;;17.08;13.05;;;;;;;4.44;100.00;102304.28;4907751;29;20511;-78
2022/09/22 02:10:47;;;;;;;14.98;12.35;;;;;;;4.43;100.00;102307.94;4878553;29;20032;-80
2022/09/22 02:13:13;;;;;;;17.52;13.05;;;;;;;4.38;100.00;102297.84;4897144;29;20484;-78
2022/09/22 02:18:32;;;;;;;18.93;13.47;;;;;;;4.32;100.00;102302.06;4913449;29;20092;-78
2022/09/22 02:20:58;;;;;;;17.13;13.93;;;;;;;4.28;100.00;102298.09;4910680;29;20292;-78
2022/09/22 02:23:24;;;;;;;21.05;14.05;;;;;;;4.28;100.00;102297.28;4910794;29;20028;-78
2022/09/22 02:25:50;;;;;;;20.80;14.02;;;;;;;4.25;100.00;102290.50;4898230;29;20127;-78
2022/09/22 02:28:19;;;;;;;20.23;14.00;;;;;;;4.18;100.00;102287.75;4904735;29;20032;-80
2022/09/22 02:30:47;;;;;;;18.60;14.07;;;;;;;4.20;100.00;102282.28;4912919;29;20071;-80
2022/09/22 02:33:13;;;;;;;20.25;14.73;;;;;;;4.23;100.00;102288.03;4913066;29;20048;-79
2022/09/22 02:35:39;;;;;;;25.98;15.13;;;;;;;4.24;100.00;102288.84;4900620;29;20040;-79
2022/09/22 02:38:17;;;;;;;21.92;15.15;;;;;;;4.22;100.00;102285.53;4910448;29;20096;-79
2022/09/22 02:41:02;;;;;;;22.48;13.77;;;;;;;4.17;100.00;102278.13;4907108;29;20126;-79
2022/09/22 02:43:49;;;;;;;20.60;15.07;;;;;;;4.13;100.00;102278.69;4913183;29;20032;-79
2022/09/22 02:46:32;;;;;;;20.30;13.95;;;;;;;4.09;100.00;102271.06;4906754;29;20080;-82
2022/09/22 02:49:05;;;;;;;20.67;14.20;;;;;;;4.12;100.00;102280.50;4913635;29;20029;-79
2022/09/22 02:51:31;;;;;;;20.60;14.53;;;;;;;4.11;100.00;102283.34;4900768;29;20343;-79
2022/09/22 02:53:57;;;;;;;24.65;14.55;;;;;;;4.09;100.00;102276.38;4907861;29;20029;-79
2022/09/22 02:56:22;;;;;;;23.60;15.13;;;;;;;4.03;100.00;102263.81;4912149;29;20051;-79
2022/09/22 02:58:47;;;;;;;20.37;14.60;;;;;;;4.06;100.00;102265.31;4889580;29;20041;-79
2022/09/22 03:01:13;;;;;;;19.33;14.80;;;;;;;4.05;100.00;102268.97;4912462;29;20055;-79
2022/09/22 03:03:38;;;;;;;22.33;15.30;;;;;;;4.03;100.00;102270.97;4913028;29;20130;-79
2022/09/22 03:06:03;;;;;;;19.30;14.77;;;;;;;4.01;100.00;102263.19;4912047;29;20036;-79
2022/09/22 03:08:29;;;;;;;20.40;15.87;;;;;;;3.98;100.00;102263.53;4912035;29;20040;-80
2022/09/22 03:10:54;;;;;;;21.20;15.93;;;;;;;3.93;100.00;102249.97;4911703;29;20036;-80
2022/09/22 03:13:19;;;;;;;26.77;16.83;;;;;;;3.97;100.00;102256.59;4910598;29;20064;-80
2022/09/22 03:15:45;;;;;;;23.25;16.40;;;;;;;3.99;100.00;102253.75;4901342;29;20399;-80
2022/09/22 03:18:11;;;;;;;22.30;15.87;;;;;;;3.93;100.00;102256.09;4896378;29;20060;-79
2022/09/22 03:20:37;;;;;;;21.90;16.10;;;;;;;3.93;100.00;102257.94;4908789;29;20060;-79
2022/09/22 03:23:02;;;;;;;22.77;15.27;;;;;;;3.85;100.00;102256.19;4913097;29;20039;-79
2022/09/22 03:25:27;;;;;;;23.73;15.57;;;;;;;3.85;100.00;102258.00;4910314;29;20069;-79
2022/09/22 03:27:52;;;;;;;27.07;15.90;;;;;;;3.81;100.00;102252.22;4904542;29;20300;-79
2022/09/22 03:30:18;;;;;;;24.43;15.60;;;;;;;3.81;100.00;102246.09;4904679;29;20076;-79
2022/09/22 03:32:43;;;;;;;21.40;16.30;;;;;;;3.79;100.00;102249.75;4924476;29;20064;-78
2022/09/22 03:35:08;;;;;;;20.80;15.70;;;;;;;3.79;100.00;102248.91;4913765;29;20448;-79
2022/09/22 03:37:34;;;;;;;21.10;15.70;;;;;;;3.74;100.00;102246.81;4909999;29;20067;-79
2022/09/22 03:40:00;;;;;;;20.63;16.05;;;;;;;3.74;100.00;102249.47;4901507;29;20083;-79
2022/09/22 03:42:25;;;;;;;22.17;15.70;;;;;;;3.75;100.00;102253.75;4912491;29;20060;-79
2022/09/22 03:44:50;;;;;;;21.65;16.40;;;;;;;3.71;100.00;102241.03;4917470;29;20064;-79
2022/09/22 03:47:16;;;;;;;19.63;15.90;;;;;;;3.69;100.00;102248.34;4916077;29;20091;-79
2022/09/22 03:49:41;;;;;;;22.47;16.73;;;;;;;3.66;100.00;102251.34;4915715;29;20020;-79
2022/09/22 03:52:06;;;;;;;21.17;15.90;;;;;;;3.64;100.00;102252.34;4907931;29;20032;-81
2022/09/22 03:54:32;;;;;;;21.07;15.80;;;;;;;3.59;100.00;102237.97;4898568;29;20024;-80
2022/09/22 03:56:57;;;;;;;26.67;17.20;;;;;;;3.65;100.00;102242.59;4907643;29;20559;-80
2022/09/22 03:59:23;;;;;;;20.63;16.63;;;;;;;3.67;100.00;102245.03;4917317;29;20648;-80
2022/09/22 04:01:49;;;;;;;22.63;16.40;;;;;;;3.70;100.00;102242.03;4909715;29;20024;-81
2022/09/22 04:04:14;;;;;;;22.50;16.93;;;;;;;3.72;100.00;102242.69;4910233;29;20084;-81
2022/09/22 04:06:39;;;;;;;21.63;15.73;;;;;;;3.73;100.00;102236.41;4910539;29;20036;-80
2022/09/22 04:09:05;;;;;;;22.40;16.73;;;;;;;3.69;100.00;102238.56;4915422;29;20052;-80
2022/09/22 04:11:30;;;;;;;20.73;15.10;;;;;;;3.60;100.00;102232.47;4915430;29;20039;-81
2022/09/22 04:13:56;;;;;;;19.83;15.30;;;;;;;3.57;100.00;102229.38;4917030;29;20634;-80
2022/09/22 04:16:22;;;;;;;20.40;14.35;;;;;;;3.56;100.00;102236.47;4917001;29;20040;-80
2022/09/22 04:18:47;;;;;;;19.27;14.90;;;;;;;3.52;100.00;102237.00;4913880;29;20051;-81
2022/09/22 04:21:13;;;;;;;18.00;14.13;;;;;;;3.41;100.00;102215.22;4902346;29;20036;-81
2022/09/22 04:23:38;;;;;;;19.35;14.20;;;;;;;3.53;100.00;102236.03;4900524;29;20035;-81
2022/09/22 04:26:04;;;;;;;17.00;13.70;;;;;;;3.54;100.00;102230.56;4898171;29;20036;-81
2022/09/22 04:28:30;;;;;;;19.35;14.10;;;;;;;3.54;100.00;102230.56;4897931;29;20043;-81
2022/09/22 04:30:56;;;;;;;19.03;13.87;;;;;;;3.53;100.00;102234.22;4899132;29;20072;-82
2022/09/22 04:33:22;;;;;;;20.13;14.10;;;;;;;3.47;100.00;102225.09;4906930;29;20119;-81
2022/09/22 04:35:48;;;;;;;17.52;13.68;;;;;;;3.42;100.00;102224.84;4915759;29;20039;-81
2022/09/22 04:38:14;;;;;;;21.15;13.93;;;;;;;3.42;100.00;102226.66;4907826;29;20033;-82
2022/09/22 04:40:40;;;;;;;18.53;14.03;;;;;;;3.37;100.00;102224.53;4898695;29;20036;-80
2022/09/22 04:43:05;;;;;;;19.30;13.20;;;;;;;3.31;100.00;102219.91;4906158;29;20277;-80
2022/09/22 04:45:30;;;;;;;17.80;13.83;;;;;;;3.24;100.00;102211.03;4902178;29;20039;-80
2022/09/22 04:47:56;;;;;;;16.00;12.77;;;;;;;3.24;100.00;102222.44;4908232;29;20028;-80
2022/09/22 04:50:22;;;;;;;18.23;12.80;;;;;;;3.26;100.00;102224.94;4897109;29;20639;-81
2022/09/22 04:52:50;;;;;;;17.67;12.53;;;;;;;3.21;100.00;102224.63;4907837;29;20491;-81
2022/09/22 04:55:16;;;;;;;17.23;13.03;;;;;;;3.15;100.00;102221.66;4912085;29;20328;-81
2022/09/22 04:57:46;;;;;;;17.77;13.15;;;;;;;3.13;100.00;102222.84;4907135;29;20037;-80
2022/09/22 05:00:11;;;;;;;19.63;14.02;;;;;;;3.12;100.00;102222.00;4915224;29;20024;-81
2022/09/22 05:02:37;;;;;;;19.20;13.23;;;;;;;3.08;100.00;102228.66;4896215;29;20039;-81
2022/09/22 05:05:04;;;;;;;18.73;12.90;;;;;;;3.04;100.00;102222.06;4916149;29;20051;-82
2022/09/22 05:07:29;;;;;;;18.27;13.68;;;;;;;2.97;100.00;102226.38;4916121;29;20115;-82
2022/09/22 05:09:56;;;;;;;18.20;13.53;;;;;;;2.95;100.00;102220.44;4899304;29;20135;-81
2022/09/22 05:12:21;;;;;;;20.38;14.52;;;;;;;2.97;100.00;102226.38;4914539;29;20510;-80
2022/09/22 05:14:47;;;;;;;20.27;13.83;;;;;;;2.99;100.00;102227.88;4912942;29;20111;-80
2022/09/22 05:17:13;;;;;;;19.95;14.68;;;;;;;3.01;100.00;102227.69;4898951;29;20036;-80
2022/09/22 05:19:38;;;;;;;19.30;14.90;;;;;;;3.03;100.00;102233.66;4906506;29;20060;-81
2022/09/22 05:22:03;;;;;;;17.80;14.07;;;;;;;3.03;100.00;102237.09;4908001;29;20115;-81
2022/09/22 05:24:29;;;;;;;22.60;14.60;;;;;;;3.01;100.00;102231.16;4911334;29;20431;-81
2022/09/22 05:26:54;;;;;;;19.75;13.88;;;;;;;2.96;100.00;102222.94;4914763;29;20106;-81
2022/09/22 05:29:19;;;;;;;20.63;14.73;;;;;;;3.00;100.00;102231.34;4915371;29;20043;-81
2022/09/22 05:31:45;;;;;;;18.67;14.80;;;;;;;2.98;100.00;102236.81;4911454;29;20020;-80
2022/09/22 05:34:10;;;;;;;19.20;14.63;;;;;;;2.99;100.00;102235.81;4908237;29;20488;-81
2022/09/22 05:36:36;;;;;;;19.55;14.65;;;;;;;2.98;100.00;102235.97;4896173;29;20051;-80
2022/09/22 05:39:01;;;;;;;22.07;15.60;;;;;;;3.02;100.00;102239.94;4898491;29;20039;-80
2022/09/22 05:41:27;;;;;;;26.50;16.27;;;;;;;3.11;100.00;102249.50;4895734;29;20092;-80
2022/09/22 05:43:52;;;;;;;24.73;16.20;;;;;;;3.16;100.00;102239.22;4911046;29;20091;-80
2022/09/22 05:46:17;;;;;;;24.40;16.23;;;;;;;3.19;100.00;102246.00;4909828;29;20388;-80
2022/09/22 05:48:42;;;;;;;24.10;16.67;;;;;;;3.23;100.00;102243.81;4896047;29;20057;-80
2022/09/22 05:51:08;;;;;;;24.10;16.57;;;;;;;3.27;100.00;102247.78;4906465;29;20152;-80
2022/09/22 05:53:33;;;;;;;23.33;17.00;;;;;;;3.24;100.00;102240.19;4904123;29;20461;-80
2022/09/22 05:55:59;;;;;;;24.33;17.13;;;;;;;3.31;100.00;102247.25;4905985;29;20043;-79
2022/09/22 05:58:24;;;;;;;24.83;16.37;;;;;;;3.35;100.00;102250.38;4900258;29;20086;-79
2022/09/22 06:00:49;;;;;;;25.45;17.10;;;;;;;3.41;100.00;102239.09;4933690;29;20036;-79
2022/09/22 06:03:15;;;;;;;23.60;16.70;;;;;;;3.48;100.00;102253.25;4927483;29;20492;-79
2022/09/22 06:05:40;;;;;;;27.37;17.43;;;;;;;3.52;100.00;102245.81;4908447;29;20060;-79
2022/09/22 06:08:06;;;;;;;24.52;16.38;;;;;;;3.54;100.00;102240.31;4912954;29;20036;-80
2022/09/22 06:10:34;;;;;;;24.40;16.97;;;;;;;3.61;100.00;102257.19;4904497;29;20032;-79
2022/09/22 06:13:01;;;;;;;25.65;17.50;;;;;;;3.62;100.00;102245.59;4895668;29;20036;-81
2022/09/22 06:15:27;;;;;;;25.75;17.10;;;;;;;3.68;100.00;102250.16;4908372;29;20090;-81
2022/09/22 06:17:53;;;;;;;25.20;16.85;;;;;;;3.72;100.00;102243.50;4914661;29;20511;-81
2022/09/22 06:20:19;;;;;;;23.55;16.35;;;;;;;3.82;100.00;102258.38;4910335;29;20068;-80
2022/09/22 06:22:44;;;;;;;25.40;17.20;;;;;;;3.87;100.00;102248.03;4911350;29;20063;-80
2022/09/22 06:25:10;;;;;;;25.67;18.13;;;;;;;3.94;100.00;102254.28;4914326;29;20074;-82
2022/09/22 06:27:35;;;;;;;26.98;17.75;;;;;;;4.03;100.00;102250.56;4901306;29;20366;-82
2022/09/22 06:30:01;;;;;;;27.77;17.93;;;;;;;4.09;100.00;102243.72;4897353;29;20036;-83
2022/09/22 06:32:26;;;;;;;26.80;17.53;;;;;;;4.14;100.00;102246.66;4885192;29;20368;-82
2022/09/22 06:34:51;;;;;;;25.90;18.07;;;;;;;4.13;100.00;102230.91;4894831;29;20116;-82
2022/09/22 06:37:19;;;;;;;26.40;17.13;;;;;;;4.20;100.00;102234.50;4896927;29;20040;-82
2022/09/22 06:39:44;;;;;;;25.17;17.90;;;;;;;4.30;100.00;102243.03;4895628;29;20037;-82
2022/09/22 06:42:10;;;;;;;30.50;19.20;;;;;;;4.26;100.00;102223.16;4906860;29;20036;-82
2022/09/22 06:44:35;;;;;;;26.70;18.07;;;;;;;4.42;100.00;102242.56;4914481;29;20669;-82
2022/09/22 06:47:04;;;;;;;31.97;20.80;;;;;;;4.50;100.00;102238.00;4913482;29;20091;-82
2022/09/22 06:49:29;;;;;;;31.00;20.83;;;;;;;4.60;100.00;102245.69;4914085;29;20028;-82
2022/09/22 06:51:55;;;;;;;31.90;21.63;;;;;;;4.67;100.00;102241.31;4912766;29;20083;-82
2022/09/22 06:54:20;;;;;;;34.90;22.33;;;;;;;4.67;100.00;102229.84;4914056;29;20284;-82
2022/09/22 06:56:45;;;;;;;40.17;23.77;;;;;;;4.88;100.00;102244.22;4913385;29;20036;-82
2022/09/22 06:59:15;;;;;;;38.70;24.77;;;;;;;5.01;100.00;102247.06;4898338;29;20036;-82
2022/09/22 07:01:43;;;;;;;43.65;25.95;;;;;;;5.10;100.00;102245.13;4894764;29;20036;-82
2022/09/22 07:04:09;;;;;;;37.05;24.98;;;;;;;5.23;100.00;102247.94;4895425;29;20024;-82
2022/09/22 07:06:36;;;;;;;45.65;26.85;;;;;;;5.35;100.00;102250.09;4904588;29;20028;-82
2022/09/22 07:09:02;;;;;;;43.43;25.97;;;;;;;5.36;100.00;102227.81;4914368;29;20554;-83
2022/09/22 07:11:27;;;;;;;45.17;26.67;;;;;;;5.52;100.00;102232.91;4911820;29;20315;-82
2022/09/22 07:13:53;;;;;;;47.08;26.40;;;;;;;5.66;100.00;102239.19;4912580;29;20040;-82
2022/09/22 07:16:21;;;;;;;44.50;26.60;;;;;;;5.78;100.00;102241.31;4912059;29;20063;-81
2022/09/22 07:18:49;;;;;;;46.08;27.23;;;;;;;5.84;100.00;102244.03;4914239;29;20020;-82
2022/09/22 07:21:23;;;;;;;50.95;28.88;;;;;;;6.00;100.00;102242.19;4912201;29;20119;-82
2022/09/22 07:23:50;;;;;;;51.50;29.05;;;;;;;6.18;100.00;102242.53;4913356;29;20042;-82
2022/09/22 07:26:18;;;;;;;51.25;29.63;;;;;;;6.39;100.00;102246.13;4889282;29;20081;-82
2022/09/22 07:28:45;;;;;;;54.60;31.20;;;;;;;6.61;100.00;102230.91;4895006;29;20096;-82
2022/09/22 07:31:12;;;;;;;47.55;29.00;;;;;;;6.75;100.00;102239.81;4897138;29;20036;-82
2022/09/22 07:33:39;;;;;;;43.95;25.55;;;;;;;6.82;100.00;102237.16;4913127;29;20032;-82
2022/09/22 07:36:09;;;;;;;46.57;27.23;;;;;;;6.99;100.00;102234.97;4912834;29;20032;-83
2022/09/22 07:38:36;;;;;;;43.30;26.10;;;;;;;7.08;100.00;102236.47;4913430;29;20355;-82
2022/09/22 07:41:08;;;;;;;34.10;23.85;;;;;;;7.09;100.00;102232.78;4911908;29;20028;-81
2022/09/22 07:43:34;;;;;;;36.22;23.83;;;;;;;7.18;100.00;102237.91;4913611;29;20032;-82
2022/09/22 07:45:59;;;;;;;35.55;22.88;;;;;;;7.24;100.00;102237.13;4912699;29;20498;-81
2022/09/22 07:48:35;;;;;;;38.33;24.17;;;;;;;7.33;100.00;102227.09;4896809;29;20063;-82
2022/09/22 07:51:01;;;;;;;34.97;23.60;;;;;;;7.50;100.00;102241.69;4911257;29;20036;-82
2022/09/22 07:53:26;;;;;;;36.05;24.08;;;;;;;7.62;100.00;102243.75;4913514;29;20107;-81
2022/09/22 07:55:51;;;;;;;39.37;23.20;;;;;;;7.67;100.00;102236.78;4911657;29;20127;-82
2022/09/22 07:58:17;;;;;;;32.60;21.13;;;;;;;7.81;100.00;102240.28;4914144;29;20160;-82
2022/09/22 08:00:42;;;;;;;36.20;22.97;;;;;;;8.02;100.00;102239.28;4913289;29;20396;-82
2022/09/22 08:03:08;;;;;;;35.33;21.83;;;;;;;8.14;100.00;102242.13;4912382;29;20040;-81
2022/09/22 08:05:33;;;;;;;34.80;21.73;;;;;;;8.28;100.00;102239.47;4912463;29;20032;-81
2022/09/22 08:08:01;;;;;;;30.60;19.70;;;;;;;8.41;100.00;102238.59;4913058;29;20060;-81
2022/09/22 08:10:26;;;;;;;28.45;18.70;;;;;;;8.46;100.00;102225.44;4912854;29;20528;-81
2022/09/22 08:12:53;;;;;;;25.58;19.02;;;;;;;8.62;100.00;102227.69;4898376;29;20079;-82
2022/09/22 08:15:21;;;;;;;28.00;18.90;;;;;;;8.76;100.00;102230.34;4894439;29;20420;-81
2022/09/22 08:17:47;;;;;;;25.17;18.50;;;;;;;8.84;100.00;102231.97;4907648;29;20311;-81
2022/09/22 08:20:12;;;;;;;24.83;18.15;;;;;;;9.00;100.00;102225.31;4913000;29;20028;-82
2022/09/22 08:22:37;;;;;;;24.37;17.50;;;;;;;9.11;100.00;102221.97;4912297;29;20111;-82
2022/09/22 08:25:03;;;;;;;26.90;17.15;;;;;;;9.26;100.00;102228.88;4913595;29;20032;-82
2022/09/22 08:27:29;;;;;;;23.77;17.30;;;;;;;9.34;100.00;102225.94;4911468;29;20044;-81
2022/09/22 08:29:54;;;;;;;23.15;16.73;;;;;;;9.38;100.00;102213.78;4914991;29;20058;-81
2022/09/22 08:32:19;;;;;;;24.97;16.53;;;;;;;9.48;100.00;102227.53;4915592;29;20029;-81
2022/09/22 08:34:44;;;;;;;24.67;16.10;;;;;;;9.53;100.00;102225.00;4916061;29;20040;-81
2022/09/22 08:37:12;;;;;;;24.03;15.67;;;;;;;9.62;100.00;102217.53;4914984;29;20068;-82
2022/09/22 08:39:37;;;;;;;23.08;14.68;;;;;;;9.74;100.00;102227.56;4916508;29;20456;-82
2022/09/22 08:42:12;;;;;;;21.73;15.43;;;;;;;9.89;100.00;102227.22;4907131;29;20115;-82
2022/09/22 08:44:58;;;;;;;24.52;15.05;;;;;;;9.95;100.00;102226.34;4897821;29;20028;-82
2022/09/22 08:53:49;;;;;;;18.27;14.48;;;;;;;10.35;100.00;102215.25;4897109;29;20051;-82
2022/09/22 08:56:29;;;;;;;27.20;14.93;;;;;;;10.58;100.00;102225.34;4899954;29;20036;-82
2022/09/22 08:59:06;;;;;;;20.30;13.10;;;;;;;10.66;100.00;102232.25;4908338;29;20059;-82
2022/09/22 09:01:51;;;;;;;17.83;14.13;;;;;;;10.73;100.00;102224.97;4914316;29;20664;-81
2022/09/22 09:05:05;;;;;;;22.42;13.95;;;;;;;10.89;100.00;102225.41;4899377;29;20034;-81
2022/09/22 09:08:13;;;;;;;17.63;12.82;;;;;;;11.09;100.00;102232.38;4897750;29;20563;-81
2022/09/22 09:11:06;;;;;;;16.08;12.10;;;;;;;11.17;100.00;102232.03;4908379;29;20047;-81
2022/09/22 09:14:03;;;;;;;16.08;12.50;;;;;;;11.33;100.00;102242.13;4897426;29;20036;-81
2022/09/22 09:16:43;;;;;;;14.18;11.45;;;;;;;11.43;100.00;102235.41;4899129;29;20052;-82
2022/09/22 09:19:26;;;;;;;16.92;11.45;;;;;;;11.55;100.00;102232.75;4916314;29;20036;-81
2022/09/22 09:21:56;;;;;;;19.60;11.82;;;;;;;11.64;99.22;102240.25;4914201;29;20425;-81
2022/09/22 09:24:47;;;;;;;18.05;11.57;;;;;;;11.73;99.64;102234.53;4898992;29;20545;-82
2022/09/22 09:27:18;;;;;;;22.47;11.40;;;;;;;11.89;99.15;102231.16;4914949;29;20040;-82
2022/09/22 09:29:58;;;;;;;16.10;11.20;;;;;;;12.10;98.27;102242.44;4915461;29;20283;-82
2022/09/22 09:32:47;;;;;;;14.02;9.90;;;;;;;12.22;95.13;102229.84;4914516;29;20040;-81
2022/09/22 09:35:44;;;;;;;16.63;9.88;;;;;;;12.33;94.07;102232.72;4915358;29;20071;-82
2022/09/22 09:38:13;;;;;;;11.63;9.32;;;;;;;12.36;95.76;102229.59;4906104;29;20044;-82
2022/09/22 09:40:39;;;;;;;12.15;8.90;;;;;;;12.50;92.25;102233.66;4896481;29;20032;-82
2022/09/22 09:43:04;;;;;;;12.60;8.73;;;;;;;12.72;89.33;102231.13;4914917;29;20103;-82
2022/09/22 09:45:49;;;;;;;12.57;7.88;;;;;;;12.78;88.21;102228.56;4915357;29;20059;-82
2022/09/22 09:48:20;;;;;;;13.35;8.52;;;;;;;12.87;91.59;102227.16;4914827;29;20035;-82
2022/09/22 09:50:45;;;;;;;14.32;8.77;;;;;;;12.94;90.14;102216.25;4915118;29;20032;-82
2022/09/22 09:53:30;;;;;;;11.23;7.57;;;;;;;12.96;87.52;102206.06;4912908;29;20033;-82
2022/09/22 09:55:56;;;;;;;8.65;7.75;;;;;;;13.14;86.02;102222.00;4896581;29;20489;-82
2022/09/22 10:01:07;;;;;;;12.25;7.80;;;;;;;13.17;87.60;102220.69;4915153;29;20050;-82
2022/09/22 10:03:34;;;;;;;10.40;6.28;;;;;;;13.19;83.82;102218.59;4913603;29;20409;-82
2022/09/22 10:06:06;;;;;;;7.43;5.22;;;;;;;13.33;80.79;102224.47;4915387;29;20476;-82
2022/09/22 10:08:35;;;;;;;6.22;4.72;;;;;;;13.35;78.10;102218.84;4913651;29;20032;-82
2022/09/22 10:11:02;;;;;;;8.00;5.13;;;;;;;13.43;78.20;102213.09;4913894;29;20024;-82
2022/09/22 10:13:35;;;;;;;9.83;4.90;;;;;;;13.50;81.49;102213.75;4896471;29;20308;-82
2022/09/22 10:16:17;;;;;;;7.88;4.57;;;;;;;13.80;75.49;102218.00;4896355;29;20112;-82
2022/09/22 10:18:42;;;;;;;5.65;4.43;;;;;;;13.89;79.09;102218.41;4913576;29;20043;-82
2022/09/22 10:21:16;;;;;;;6.90;4.87;;;;;;;13.94;77.21;102210.41;4914146;29;20028;-82
2022/09/22 10:23:46;;;;;;;4.00;3.15;;;;;;;13.98;73.88;102208.03;4913927;29;20056;-82
2022/09/22 10:26:18;;;;;;;4.65;2.78;;;;;;;14.19;71.12;102209.97;4914828;29;20032;-82
2022/09/22 10:28:49;;;;;;;5.35;2.60;;;;;;;14.25;67.57;102210.84;4912350;29;20036;-82
2022/09/22 10:31:25;;;;;;;5.72;2.20;;;;;;;14.26;70.14;102206.28;4913893;29;20114;-82
2022/09/22 10:33:57;;;;;;;4.82;2.30;;;;;;;14.39;68.10;102195.94;4914600;29;20172;-81
2022/09/22 10:36:26;;;;;;;3.25;2.22;;;;;;;14.60;67.51;102203.47;4913327;29;20040;-81
2022/09/22 10:38:53;;;;;;;2.60;1.95;;;;;;;14.77;64.14;102187.25;4911263;29;20080;-82
2022/09/22 10:41:26;;;;;;;3.65;1.77;;;;;;;14.97;65.48;102184.75;4914002;29;20099;-81
2022/09/22 10:43:59;;;;;;;6.47;1.73;;;;;;;15.04;65.48;102181.03;4914596;29;20400;-82
2022/09/22 10:46:57;;;;;;;2.93;1.70;;;;;;;15.09;63.94;102183.78;4913444;29;20276;-82
2022/09/22 10:49:49;;;;;;;3.95;1.60;;;;;;;15.17;65.55;102186.03;4895193;29;20033;-82
2022/09/22 10:52:42;;;;;;;4.57;1.85;;;;;;;15.35;61.37;102186.72;4895449;29;20487;-82
2022/09/22 10:55:44;;;;;;;5.13;1.80;;;;;;;15.52;60.62;102186.59;4895424;29;20640;-81
2022/09/22 10:58:35;;;;;;;2.75;1.45;;;;;;;15.54;61.11;102170.94;4879309;29;20048;-81
2022/09/22 11:01:26;;;;;;;4.05;1.73;;;;;;;15.71;61.88;102181.59;4895236;29;20037;-82
2022/09/22 11:03:59;;;;;;;3.17;1.70;;;;;;;15.68;60.23;102179.44;4876723;29;20108;-81
2022/09/22 11:12:39;;;;;;;2.33;1.70;;;;;;;15.88;58.24;102179.59;4894933;29;20055;-80
2022/09/22 11:15:29;;;;;;;3.80;1.80;;;;;;;15.82;60.37;102160.84;4895724;29;20276;-81
2022/09/22 11:18:28;;;;;;;3.67;1.60;;;;;;;15.92;61.05;102169.06;4880143;29;20040;-81
2022/09/22 11:21:11;;;;;;;4.50;1.52;;;;;;;16.25;58.95;102160.88;4893857;29;20088;-82
2022/09/22 11:23:56;;;;;;;3.80;1.25;;;;;;;16.63;59.37;102159.66;4913572;29;20539;-84
2022/09/22 11:26:48;;;;;;;3.17;1.58;;;;;;;16.92;58.40;102155.66;4896869;29;20032;-80
2022/09/22 11:29:44;;;;;;;3.83;1.70;;;;;;;17.01;55.94;102170.31;4898062;29;20040;-81
2022/09/22 11:32:30;;;;;;;2.33;1.60;;;;;;;16.83;57.18;102151.84;4895142;29;20147;-80
2022/09/22 11:35:19;;;;;;;2.60;1.70;;;;;;;16.75;55.15;102159.41;4912281;29;20043;-80
2022/09/22 11:38:21;;;;;;;1.83;1.60;;;;;;;16.83;56.71;102149.94;4897368;29;20043;-80
2022/09/22 11:41:20;;;;;;;3.07;1.60;;;;;;;17.23;57.10;102155.69;4913647;29;20034;-80
2022/09/22 11:44:08;;;;;;;3.03;1.80;;;;;;;17.53;55.66;102160.28;4899354;29;20309;-80
2022/09/22 11:47:00;;;;;;;2.75;1.83;;;;;;;17.97;56.94;102149.91;4899690;29;20119;-82